In Rescue
 
Open Full Screen Window  High Contrast Mode
Wind Gusting 00 knots
07
January 20, 2022 7:08 AM CST
Weather Information
Wind Direction
  300 °
Wind Speed
  07 kt (8 mph)
Wind Gust
  00 kt (0 mph)
Altimeter
30.68 in
Visibility
10 SM
Temperature
-26° C
-14° F
Dewpoint
-28° C
-17° F
Humidity
83%
1hr Rain Fall
00.00 in.
24hr Rain Fall
00.00 in.
Sky Condition
Missing
VFR

METAR KJYG 201308Z AUTO 30007KT 10SM M26/M28 A3068 RMK AO2

FAA Disclaimer: The data displayed is for advisory purposes only and is not to be used for flight planning or operations.
Missing Cloud Data